sensor_id;sensor_type;location;lat;lon;timestamp;temperature;humidity
41722;DHT22;27407;24.142;-110.310;2023-09-19T13:22:43;27.60;99.90
41722;DHT22;27407;24.142;-110.310;2023-09-19T13:25:21;27.70;99.90
41722;DHT22;27407;24.142;-110.310;2023-09-19T13:27:55;27.80;99.90
41722;DHT22;27407;24.142;-110.310;2023-09-19T13:30:26;27.80;99.90
41722;DHT22;27407;24.142;-110.310;2023-09-19T13:33:11;27.80;99.90
41722;DHT22;27407;24.142;-110.310;2023-09-19T13:35:40;27.80;99.90
41722;DHT22;27407;24.142;-110.310;2023-09-19T13:38:07;27.90;99.90
41722;DHT22;27407;24.142;-110.310;2023-09-19T13:40:38;28.10;99.90
41722;DHT22;27407;24.142;-110.310;2023-09-19T13:43:08;28.10;99.90
41722;DHT22;27407;24.142;-110.310;2023-09-19T13:45:34;28.00;99.90
41722;DHT22;27407;24.142;-110.310;2023-09-19T13:48:03;28.00;99.90
41722;DHT22;27407;24.142;-110.310;2023-09-19T13:50:30;27.80;99.90
41722;DHT22;27407;24.142;-110.310;2023-09-19T13:52:57;27.70;99.90
41722;DHT22;27407;24.142;-110.310;2023-09-19T13:55:26;27.70;99.90
41722;DHT22;27407;24.142;-110.310;2023-09-19T13:57:53;27.70;99.90
41722;DHT22;27407;24.142;-110.310;2023-09-19T14:00:22;27.70;99.90
41722;DHT22;27407;24.142;-110.310;2023-09-19T14:02:49;27.80;99.90
41722;DHT22;27407;24.142;-110.310;2023-09-19T14:05:17;27.90;99.90
41722;DHT22;27407;24.142;-110.310;2023-09-19T14:07:45;28.00;99.90
41722;DHT22;27407;24.142;-110.310;2023-09-19T14:10:14;28.00;99.90
41722;DHT22;27407;24.142;-110.310;2023-09-19T14:12:41;28.10;99.90
41722;DHT22;27407;24.142;-110.310;2023-09-19T14:15:11;28.30;99.90
41722;DHT22;27407;24.142;-110.310;2023-09-19T14:17:38;28.30;99.90
41722;DHT22;27407;24.142;-110.310;2023-09-19T14:20:06;28.30;99.90
41722;DHT22;27407;24.142;-110.310;2023-09-19T14:22:33;28.40;99.90
41722;DHT22;27407;24.142;-110.310;2023-09-19T14:24:59;28.50;99.90
41722;DHT22;27407;24.142;-110.310;2023-09-19T14:27:26;28.60;99.90
41722;DHT22;27407;24.142;-110.310;2023-09-19T14:29:53;28.70;99.90
41722;DHT22;27407;24.142;-110.310;2023-09-19T14:32:19;28.70;99.90
41722;DHT22;27407;24.142;-110.310;2023-09-19T14:34:46;28.80;99.90
41722;DHT22;27407;24.142;-110.310;2023-09-19T14:37:13;28.80;99.90
41722;DHT22;27407;24.142;-110.310;2023-09-19T14:39:41;28.80;99.90
41722;DHT22;27407;24.142;-110.310;2023-09-19T14:42:11;29.00;99.90
41722;DHT22;27407;24.142;-110.310;2023-09-19T14:44:38;29.00;99.90
41722;DHT22;27407;24.142;-110.310;2023-09-19T14:47:04;29.00;99.90
41722;DHT22;27407;24.142;-110.310;2023-09-19T14:49:34;29.00;99.90
41722;DHT22;27407;24.142;-110.310;2023-09-19T14:52:01;29.00;99.90
41722;DHT22;27407;24.142;-110.310;2023-09-19T14:54:30;29.20;99.90
41722;DHT22;27407;24.142;-110.310;2023-09-19T14:56:57;29.20;99.90
41722;DHT22;27407;24.142;-110.310;2023-09-19T14:59:33;29.20;99.90
41722;DHT22;27407;24.142;-110.310;2023-09-19T15:02:06;29.40;99.90
41722;DHT22;27407;24.142;-110.310;2023-09-19T15:04:33;29.50;99.90
41722;DHT22;27407;24.142;-110.310;2023-09-19T15:07:00;29.70;99.90
41722;DHT22;27407;24.142;-110.310;2023-09-19T15:09:28;29.80;99.90
41722;DHT22;27407;24.142;-110.310;2023-09-19T15:11:58;29.90;99.90
41722;DHT22;27407;24.142;-110.310;2023-09-19T15:14:24;29.90;99.90
41722;DHT22;27407;24.142;-110.310;2023-09-19T15:16:51;30.20;99.90
41722;DHT22;27407;24.142;-110.310;2023-09-19T15:19:18;30.30;99.90
41722;DHT22;27407;24.142;-110.310;2023-09-19T15:21:45;30.40;99.90
41722;DHT22;27407;24.142;-110.310;2023-09-19T15:24:11;30.30;99.90
41722;DHT22;27407;24.142;-110.310;2023-09-19T15:26:38;30.50;99.90
41722;DHT22;27407;24.142;-110.310;2023-09-19T15:29:09;30.70;99.90
41722;DHT22;27407;24.142;-110.310;2023-09-19T15:31:39;30.60;99.90
41722;DHT22;27407;24.142;-110.310;2023-09-19T15:34:05;30.90;99.90
41722;DHT22;27407;24.142;-110.310;2023-09-19T15:36:33;31.00;99.90
41722;DHT22;27407;24.142;-110.310;2023-09-19T15:39:04;31.20;99.90
41722;DHT22;27407;24.142;-110.310;2023-09-19T15:41:38;31.40;99.90
41722;DHT22;27407;24.142;-110.310;2023-09-19T15:44:12;31.60;99.90
41722;DHT22;27407;24.142;-110.310;2023-09-19T15:46:39;31.60;99.90
41722;DHT22;27407;24.142;-110.310;2023-09-19T15:49:07;31.70;99.90
41722;DHT22;27407;24.142;-110.310;2023-09-19T15:51:34;31.90;99.90
41722;DHT22;27407;24.142;-110.310;2023-09-19T15:54:09;32.10;99.90
41722;DHT22;27407;24.142;-110.310;2023-09-19T15:56:37;32.20;99.90
41722;DHT22;27407;24.142;-110.310;2023-09-19T15:59:04;32.30;99.90
41722;DHT22;27407;24.142;-110.310;2023-09-19T16:01:31;32.60;99.90
41722;DHT22;27407;24.142;-110.310;2023-09-19T16:03:57;32.60;99.90
41722;DHT22;27407;24.142;-110.310;2023-09-19T16:06:26;32.70;99.90
41722;DHT22;27407;24.142;-110.310;2023-09-19T16:08:55;32.90;99.90
41722;DHT22;27407;24.142;-110.310;2023-09-19T16:11:22;33.00;99.90
41722;DHT22;27407;24.142;-110.310;2023-09-19T16:13:50;33.20;99.90
41722;DHT22;27407;24.142;-110.310;2023-09-19T16:16:18;33.40;99.90
41722;DHT22;27407;24.142;-110.310;2023-09-19T16:19:06;33.50;99.90
41722;DHT22;27407;24.142;-110.310;2023-09-19T16:21:37;33.60;99.90
41722;DHT22;27407;24.142;-110.310;2023-09-19T16:24:06;33.70;99.90
41722;DHT22;27407;24.142;-110.310;2023-09-19T16:26:35;34.00;99.90
41722;DHT22;27407;24.142;-110.310;2023-09-19T16:29:03;34.30;99.90
41722;DHT22;27407;24.142;-110.310;2023-09-19T16:31:30;34.30;99.90
41722;DHT22;27407;24.142;-110.310;2023-09-19T16:33:59;34.50;99.90
41722;DHT22;27407;24.142;-110.310;2023-09-19T16:36:25;34.50;99.90
41722;DHT22;27407;24.142;-110.310;2023-09-19T16:38:52;34.60;99.90
41722;DHT22;27407;24.142;-110.310;2023-09-19T16:41:19;34.80;99.90
41722;DHT22;27407;24.142;-110.310;2023-09-19T16:43:46;34.80;99.90
41722;DHT22;27407;24.142;-110.310;2023-09-19T16:46:13;35.10;99.90
41722;DHT22;27407;24.142;-110.310;2023-09-19T16:48:44;35.30;99.90
41722;DHT22;27407;24.142;-110.310;2023-09-19T16:53:44;35.60;99.90
41722;DHT22;27407;24.142;-110.310;2023-09-19T16:56:18;35.50;99.90
41722;DHT22;27407;24.142;-110.310;2023-09-19T16:58:46;35.60;99.90
41722;DHT22;27407;24.142;-110.310;2023-09-19T17:01:14;35.80;99.90
41722;DHT22;27407;24.142;-110.310;2023-09-19T17:03:44;35.90;99.90
41722;DHT22;27407;24.142;-110.310;2023-09-19T17:06:14;36.20;99.90
41722;DHT22;27407;24.142;-110.310;2023-09-19T17:08:45;36.40;99.90
41722;DHT22;27407;24.142;-110.310;2023-09-19T17:11:14;36.70;99.90
41722;DHT22;27407;24.142;-110.310;2023-09-19T17:13:42;37.00;99.80
41722;DHT22;27407;24.142;-110.310;2023-09-19T17:16:11;37.10;99.10
41722;DHT22;27407;24.142;-110.310;2023-09-19T17:18:38;37.20;98.60
41722;DHT22;27407;24.142;-110.310;2023-09-19T17:21:07;37.40;95.70
41722;DHT22;27407;24.142;-110.310;2023-09-19T17:23:36;37.50;95.70
41722;DHT22;27407;24.142;-110.310;2023-09-19T17:26:12;37.40;93.60
41722;DHT22;27407;24.142;-110.310;2023-09-19T17:28:47;37.40;93.70
41722;DHT22;27407;24.142;-110.310;2023-09-19T17:31:37;37.30;92.80
41722;DHT22;27407;24.142;-110.310;2023-09-19T17:35:11;37.60;91.70
41722;DHT22;27407;24.142;-110.310;2023-09-19T17:37:49;37.60;91.40
41722;DHT22;27407;24.142;-110.310;2023-09-19T17:40:29;37.60;92.40
41722;DHT22;27407;24.142;-110.310;2023-09-19T17:43:37;37.70;94.40
41722;DHT22;27407;24.142;-110.310;2023-09-19T17:46:14;38.00;92.10
41722;DHT22;27407;24.142;-110.310;2023-09-19T17:48:45;38.40;92.50
41722;DHT22;27407;24.142;-110.310;2023-09-19T17:51:12;38.90;90.60
41722;DHT22;27407;24.142;-110.310;2023-09-19T17:53:41;38.70;91.50
41722;DHT22;27407;24.142;-110.310;2023-09-19T17:56:13;38.90;92.50
41722;DHT22;27407;24.142;-110.310;2023-09-19T17:58:42;39.10;93.60
41722;DHT22;27407;24.142;-110.310;2023-09-19T18:01:13;39.40;93.40
41722;DHT22;27407;24.142;-110.310;2023-09-19T18:03:48;39.50;93.10
41722;DHT22;27407;24.142;-110.310;2023-09-19T18:06:17;39.60;93.40
41722;DHT22;27407;24.142;-110.310;2023-09-19T18:09:14;39.50;93.10
41722;DHT22;27407;24.142;-110.310;2023-09-19T18:11:44;39.50;92.30
41722;DHT22;27407;24.142;-110.310;2023-09-19T18:14:19;39.80;91.90
41722;DHT22;27407;24.142;-110.310;2023-09-19T18:16:47;39.90;91.80
41722;DHT22;27407;24.142;-110.310;2023-09-19T18:19:23;39.50;92.30
41722;DHT22;27407;24.142;-110.310;2023-09-19T18:21:50;39.70;90.90
41722;DHT22;27407;24.142;-110.310;2023-09-19T18:24:17;39.50;90.00
41722;DHT22;27407;24.142;-110.310;2023-09-19T18:26:43;39.60;90.20
41722;DHT22;27407;24.142;-110.310;2023-09-19T18:29:10;39.50;88.80
41722;DHT22;27407;24.142;-110.310;2023-09-19T18:31:37;39.30;88.90
41722;DHT22;27407;24.142;-110.310;2023-09-19T18:34:04;39.40;88.80
41722;DHT22;27407;24.142;-110.310;2023-09-19T18:36:32;39.90;88.80
41722;DHT22;27407;24.142;-110.310;2023-09-19T18:39:00;39.70;88.90
41722;DHT22;27407;24.142;-110.310;2023-09-19T18:41:28;39.70;89.80
41722;DHT22;27407;24.142;-110.310;2023-09-19T18:43:55;39.70;90.60
41722;DHT22;27407;24.142;-110.310;2023-09-19T18:46:23;40.00;89.60
41722;DHT22;27407;24.142;-110.310;2023-09-19T18:48:52;40.60;88.50
41722;DHT22;27407;24.142;-110.310;2023-09-19T18:51:19;40.90;87.50
41722;DHT22;27407;24.142;-110.310;2023-09-19T18:53:49;40.90;87.20
41722;DHT22;27407;24.142;-110.310;2023-09-19T18:56:16;41.00;86.70
41722;DHT22;27407;24.142;-110.310;2023-09-19T18:58:44;40.90;86.80
41722;DHT22;27407;24.142;-110.310;2023-09-19T19:01:12;40.90;86.50
41722;DHT22;27407;24.142;-110.310;2023-09-19T19:03:42;40.70;88.70
41722;DHT22;27407;24.142;-110.310;2023-09-19T19:06:12;40.70;86.00
41722;DHT22;27407;24.142;-110.310;2023-09-19T19:08:44;41.20;86.40
41722;DHT22;27407;24.142;-110.310;2023-09-19T19:11:12;41.50;86.00
41722;DHT22;27407;24.142;-110.310;2023-09-19T19:13:42;41.50;86.40
41722;DHT22;27407;24.142;-110.310;2023-09-19T19:16:09;41.20;86.10
41722;DHT22;27407;24.142;-110.310;2023-09-19T19:18:40;41.30;86.20
41722;DHT22;27407;24.142;-110.310;2023-09-19T19:21:08;41.40;86.90
41722;DHT22;27407;24.142;-110.310;2023-09-19T19:23:35;41.20;87.90
41722;DHT22;27407;24.142;-110.310;2023-09-19T19:26:03;41.60;86.20
41722;DHT22;27407;24.142;-110.310;2023-09-19T19:28:34;42.30;87.90
41722;DHT22;27407;24.142;-110.310;2023-09-19T19:31:09;42.30;87.30
41722;DHT22;27407;24.142;-110.310;2023-09-19T19:33:59;42.30;85.60
41722;DHT22;27407;24.142;-110.310;2023-09-19T19:36:29;41.80;87.90
41722;DHT22;27407;24.142;-110.310;2023-09-19T19:38:55;41.80;88.90
41722;DHT22;27407;24.142;-110.310;2023-09-19T19:41:22;42.10;89.40
41722;DHT22;27407;24.142;-110.310;2023-09-19T19:43:49;42.10;88.60
41722;DHT22;27407;24.142;-110.310;2023-09-19T19:46:16;42.90;88.80
41722;DHT22;27407;24.142;-110.310;2023-09-19T19:48:43;42.70;90.00
41722;DHT22;27407;24.142;-110.310;2023-09-19T19:51:14;43.20;86.00
41722;DHT22;27407;24.142;-110.310;2023-09-19T19:53:41;43.60;87.00
41722;DHT22;27407;24.142;-110.310;2023-09-19T19:56:08;43.90;85.90
41722;DHT22;27407;24.142;-110.310;2023-09-19T19:58:35;43.90;80.30
41722;DHT22;27407;24.142;-110.310;2023-09-19T20:01:02;43.50;80.00
41722;DHT22;27407;24.142;-110.310;2023-09-19T20:03:34;43.00;80.30
41722;DHT22;27407;24.142;-110.310;2023-09-19T20:06:04;43.80;81.10
41722;DHT22;27407;24.142;-110.310;2023-09-19T20:08:32;43.80;81.50
41722;DHT22;27407;24.142;-110.310;2023-09-19T20:11:02;43.30;80.70
41722;DHT22;27407;24.142;-110.310;2023-09-19T20:13:43;43.40;81.00
41722;DHT22;27407;24.142;-110.310;2023-09-19T20:16:12;43.20;82.40
41722;DHT22;27407;24.142;-110.310;2023-09-19T20:18:39;43.60;82.50
41722;DHT22;27407;24.142;-110.310;2023-09-19T20:21:08;43.60;81.40
41722;DHT22;27407;24.142;-110.310;2023-09-19T20:23:43;44.20;79.70
41722;DHT22;27407;24.142;-110.310;2023-09-19T20:26:12;44.50;79.50
41722;DHT22;27407;24.142;-110.310;2023-09-19T20:28:59;45.00;78.60
